Time;durP1;ratioP1;P1;durP2;ratioP2;P2;SDS_P1;SDS_P2;PMS_P1;PMS_P2;Temp;Humidity;BMP_temperature;BMP_pressure;BME280_temperature;BME280_humidity;BME280_pressure;Samples;Min_cycle;Max_cycle;Signal;HPM_P1;HPM_P2
2020/12/08 00:00:39;;;;;;;35.40;20.60;;;4.60;99.90;;;;;;5033209;28;20374;-70
2020/12/08 00:03:05;;;;;;;33.55;20.20;;;4.60;99.90;;;;;;5028843;28;20022;-70
2020/12/08 00:05:31;;;;;;;30.77;18.63;;;4.60;99.90;;;;;;5035750;28;20236;-70
2020/12/08 00:07:56;;;;;;;34.03;20.27;;;4.60;99.90;;;;;;5029982;28;20041;-70
2020/12/08 00:10:22;;;;;;;30.70;18.33;;;4.50;99.90;;;;;;5032911;28;20033;-70
2020/12/08 00:12:51;;;;;;;38.65;21.05;;;4.50;99.90;;;;;;5030146;28;20033;-70
2020/12/08 00:15:19;;;;;;;32.05;18.80;;;4.50;99.90;;;;;;5030161;28;20128;-70
2020/12/08 00:17:47;;;;;;;31.15;18.25;;;4.40;99.90;;;;;;5053845;28;20033;-70
2020/12/08 00:20:13;;;;;;;35.72;20.38;;;4.40;99.90;;;;;;5015778;28;20077;-70
2020/12/08 00:22:41;;;;;;;30.23;18.45;;;4.40;99.90;;;;;;5035656;28;20041;-70
2020/12/08 00:25:07;;;;;;;27.13;16.80;;;4.40;99.90;;;;;;5035109;28;20088;-70
2020/12/08 00:27:36;;;;;;;27.77;16.35;;;4.40;99.90;;;;;;5035898;28;20104;-70
2020/12/08 00:30:01;;;;;;;29.13;17.77;;;4.40;99.90;;;;;;5019781;28;20091;-70
2020/12/08 00:32:27;;;;;;;27.08;16.00;;;4.30;99.90;;;;;;5033367;28;20422;-70
2020/12/08 00:34:53;;;;;;;31.92;18.42;;;4.40;99.90;;;;;;5030280;28;20214;-70
2020/12/08 00:37:20;;;;;;;30.77;17.05;;;4.40;99.90;;;;;;5029301;28;20052;-70
2020/12/08 00:39:46;;;;;;;29.60;17.85;;;4.30;99.90;;;;;;5033820;28;20041;-70
2020/12/08 00:42:16;;;;;;;26.23;15.80;;;4.30;99.90;;;;;;5034270;28;20370;-71
2020/12/08 00:44:42;;;;;;;27.05;17.05;;;4.30;99.90;;;;;;5033045;28;20091;-70
2020/12/08 00:47:08;;;;;;;26.00;16.45;;;4.30;99.90;;;;;;5032225;28;20065;-70
2020/12/08 00:49:34;;;;;;;26.70;16.83;;;4.30;99.90;;;;;;5031613;28;20021;-70
2020/12/08 00:51:59;;;;;;;28.10;17.60;;;4.30;99.90;;;;;;5033061;28;20044;-70
2020/12/08 00:54:25;;;;;;;27.23;16.58;;;4.30;99.90;;;;;;5034638;28;20017;-71
2020/12/08 00:56:51;;;;;;;25.23;16.25;;;4.30;99.90;;;;;;5034450;28;20032;-70
2020/12/08 00:59:17;;;;;;;26.90;16.65;;;4.30;99.90;;;;;;5031458;28;20152;-70
2020/12/08 01:01:42;;;;;;;25.13;16.13;;;4.30;99.90;;;;;;5029805;28;20037;-70
2020/12/08 01:04:10;;;;;;;26.02;16.60;;;4.20;99.90;;;;;;5031917;28;21911;-70
2020/12/08 01:06:38;;;;;;;25.55;15.57;;;4.20;99.90;;;;;;5030064;28;20032;-70
2020/12/08 01:09:06;;;;;;;22.80;14.73;;;4.20;99.90;;;;;;5035368;28;20030;-70
2020/12/08 01:11:32;;;;;;;22.30;14.35;;;4.20;99.90;;;;;;5027918;28;20036;-70
2020/12/08 01:13:58;;;;;;;24.50;14.93;;;4.20;99.90;;;;;;5033468;28;20471;-70
2020/12/08 01:16:27;;;;;;;29.38;17.23;;;4.10;99.90;;;;;;5033570;28;20048;-70
2020/12/08 01:18:53;;;;;;;25.92;15.65;;;4.10;99.90;;;;;;5016029;28;20061;-70
2020/12/08 01:21:18;;;;;;;23.15;14.70;;;4.10;99.90;;;;;;5034664;28;20049;-70
2020/12/08 01:23:45;;;;;;;22.80;14.57;;;4.10;99.90;;;;;;5033801;28;20505;-70
2020/12/08 01:26:22;;;;;;;20.58;13.10;;;4.10;99.90;;;;;;5017721;28;20029;-70
2020/12/08 01:28:50;;;;;;;20.98;14.25;;;4.10;99.90;;;;;;5029986;28;20115;-70
2020/12/08 01:31:16;;;;;;;21.35;13.82;;;4.10;99.90;;;;;;5030787;28;20134;-70
2020/12/08 01:33:41;;;;;;;23.45;13.52;;;4.20;99.90;;;;;;5031851;28;20092;-70
2020/12/08 01:36:07;;;;;;;23.05;14.43;;;4.10;99.90;;;;;;5032735;28;20029;-70
2020/12/08 01:38:33;;;;;;;23.02;14.65;;;4.10;99.90;;;;;;5019880;28;20361;-70
2020/12/08 01:40:58;;;;;;;21.30;14.52;;;4.10;99.90;;;;;;5031839;28;20036;-70
2020/12/08 01:43:24;;;;;;;27.63;16.20;;;4.00;99.90;;;;;;5025456;28;20048;-70
2020/12/08 01:45:55;;;;;;;26.90;15.80;;;4.00;99.90;;;;;;5029193;28;20467;-70
2020/12/08 01:48:20;;;;;;;24.33;15.43;;;4.00;99.90;;;;;;5036008;28;20121;-70
2020/12/08 01:50:46;;;;;;;21.75;13.93;;;3.90;99.90;;;;;;5045309;28;20354;-70
2020/12/08 01:53:12;;;;;;;24.90;15.52;;;3.90;99.90;;;;;;5030831;28;20021;-70
2020/12/08 01:55:41;;;;;;;61.78;28.25;;;3.90;99.90;;;;;;5029725;28;20577;-70
2020/12/08 01:58:25;;;;;;;45.53;24.17;;;3.90;99.90;;;;;;5034589;28;20041;-70
2020/12/08 02:00:54;;;;;;;30.60;16.92;;;3.90;99.90;;;;;;5029193;28;20033;-70
2020/12/08 02:03:21;;;;;;;24.40;14.45;;;3.90;99.90;;;;;;5033140;28;20040;-70
2020/12/08 02:05:47;;;;;;;22.50;14.73;;;3.90;99.90;;;;;;5029375;28;20358;-70
2020/12/08 02:08:25;;;;;;;25.10;14.90;;;3.90;99.90;;;;;;5028806;28;20025;-70
2020/12/08 02:10:50;;;;;;;25.33;14.85;;;3.80;99.90;;;;;;5032094;28;20044;-70
2020/12/08 02:13:19;;;;;;;24.00;14.18;;;3.80;99.90;;;;;;5032536;28;20029;-70
2020/12/08 02:15:49;;;;;;;24.58;14.60;;;3.80;99.90;;;;;;5031061;28;20022;-70
2020/12/08 02:18:15;;;;;;;24.67;14.43;;;3.80;99.90;;;;;;5017846;28;20037;-70
2020/12/08 02:20:41;;;;;;;24.60;14.82;;;3.70;99.90;;;;;;5031093;28;20038;-71
2020/12/08 02:23:07;;;;;;;21.88;13.75;;;3.70;99.90;;;;;;5033320;28;20556;-70
2020/12/08 02:25:35;;;;;;;25.02;15.43;;;3.70;99.90;;;;;;5031606;28;20029;-70
2020/12/08 02:28:03;;;;;;;23.00;14.32;;;3.70;99.90;;;;;;5030199;28;20049;-70
2020/12/08 02:30:34;;;;;;;29.25;16.77;;;3.70;99.90;;;;;;5034810;28;20069;-71
2020/12/08 02:33:02;;;;;;;26.40;15.30;;;3.60;99.90;;;;;;5033899;28;20363;-70
2020/12/08 02:35:30;;;;;;;29.73;15.68;;;3.70;99.90;;;;;;5048967;28;20052;-70
2020/12/08 02:37:56;;;;;;;24.52;14.73;;;3.70;99.90;;;;;;5032812;28;20627;-70
2020/12/08 02:40:21;;;;;;;22.92;13.48;;;3.70;99.90;;;;;;5030034;28;20060;-70
2020/12/08 02:42:47;;;;;;;26.25;14.60;;;3.70;99.90;;;;;;5028333;28;20037;-70
2020/12/08 02:45:15;;;;;;;25.13;14.20;;;3.70;99.90;;;;;;5029608;28;20037;-70
2020/12/08 02:47:42;;;;;;;28.98;15.05;;;3.70;99.90;;;;;;5034666;28;20099;-70
2020/12/08 02:50:10;;;;;;;30.88;16.35;;;3.70;99.90;;;;;;5032710;28;20036;-70
2020/12/08 02:52:41;;;;;;;29.08;16.85;;;3.70;99.90;;;;;;5035024;28;20029;-70
2020/12/08 02:55:06;;;;;;;25.20;13.82;;;3.70;99.90;;;;;;5030903;28;20107;-70
2020/12/08 02:57:32;;;;;;;26.30;15.38;;;3.60;99.90;;;;;;5030809;28;20117;-70
2020/12/08 02:59:58;;;;;;;29.98;15.65;;;3.70;99.90;;;;;;5034017;28;20053;-70
2020/12/08 03:02:25;;;;;;;27.17;14.80;;;3.60;99.90;;;;;;5026799;28;20445;-70
2020/12/08 03:04:53;;;;;;;28.05;15.55;;;3.60;99.90;;;;;;5025979;28;20064;-70
2020/12/08 03:07:18;;;;;;;29.90;16.17;;;3.60;99.90;;;;;;5030175;28;20064;-70
2020/12/08 03:09:51;;;;;;;31.15;16.90;;;3.50;99.90;;;;;;5031162;28;20076;-70
2020/12/08 03:12:16;;;;;;;;;;;3.50;99.90;;;;;;5029268;28;20040;-70
2020/12/08 03:14:43;;;;;;;27.42;15.50;;;3.40;99.90;;;;;;5047649;28;19913;-70
2020/12/08 03:17:11;;;;;;;32.53;17.25;;;3.40;99.90;;;;;;5031611;28;20040;-70
2020/12/08 03:19:39;;;;;;;27.33;15.80;;;3.40;99.90;;;;;;5035225;28;20447;-70
2020/12/08 03:22:10;;;;;;;24.02;13.88;;;3.40;99.90;;;;;;5031767;28;20032;-70
2020/12/08 03:24:35;;;;;;;26.98;15.48;;;3.40;99.90;;;;;;5031583;28;20114;-70
2020/12/08 03:27:01;;;;;;;25.25;14.60;;;3.40;99.90;;;;;;5025433;28;20450;-70
2020/12/08 03:29:29;;;;;;;24.90;15.45;;;3.40;99.90;;;;;;5029080;28;20057;-70
2020/12/08 03:31:57;;;;;;;24.50;14.82;;;3.40;99.90;;;;;;5035990;28;20055;-70
2020/12/08 03:34:25;;;;;;;26.52;14.68;;;3.40;99.90;;;;;;5031190;28;20034;-70
2020/12/08 03:36:51;;;;;;;26.63;15.88;;;3.40;99.90;;;;;;5033025;28;20091;-70
2020/12/08 03:39:17;;;;;;;26.02;15.13;;;3.40;99.90;;;;;;5032972;28;20029;-70
2020/12/08 03:41:45;;;;;;;25.48;15.95;;;3.40;99.90;;;;;;5029001;28;20075;-70
2020/12/08 03:44:11;;;;;;;25.17;15.00;;;3.50;99.90;;;;;;5033846;28;20480;-70
2020/12/08 03:46:37;;;;;;;27.50;15.57;;;3.50;99.90;;;;;;5032045;28;20025;-70
2020/12/08 03:49:05;;;;;;;25.35;14.90;;;3.40;99.90;;;;;;5030684;28;20034;-70
2020/12/08 03:51:30;;;;;;;25.38;14.80;;;3.40;99.90;;;;;;5020502;28;20048;-70
2020/12/08 03:53:56;;;;;;;25.80;15.73;;;3.50;99.90;;;;;;5032045;28;20581;-70
2020/12/08 03:56:21;;;;;;;24.88;15.43;;;3.50;99.90;;;;;;5030322;28;20463;-70
2020/12/08 03:58:47;;;;;;;26.42;15.77;;;3.50;99.90;;;;;;5033734;28;20055;-70
2020/12/08 04:01:17;;;;;;;27.60;15.43;;;3.50;99.90;;;;;;5032887;28;20095;-70
2020/12/08 04:03:43;;;;;;;28.85;16.13;;;3.50;99.90;;;;;;5026657;28;20044;-70
2020/12/08 04:06:14;;;;;;;27.85;16.23;;;3.50;99.90;;;;;;5032999;28;20025;-70
2020/12/08 04:08:42;;;;;;;28.48;16.55;;;3.50;99.90;;;;;;5030999;28;20034;-70
2020/12/08 04:11:12;;;;;;;28.70;16.20;;;3.50;99.90;;;;;;5029762;28;20029;-70
2020/12/08 04:13:37;;;;;;;28.17;15.68;;;3.50;99.90;;;;;;5034014;28;20032;-70
2020/12/08 04:16:03;;;;;;;29.50;16.50;;;3.60;99.90;;;;;;5031258;28;20382;-70
2020/12/08 04:18:31;;;;;;;30.75;17.75;;;3.50;99.90;;;;;;5026295;28;20018;-70
2020/12/08 04:20:57;;;;;;;26.17;15.18;;;3.50;99.90;;;;;;5027773;28;20025;-70
2020/12/08 04:23:24;;;;;;;28.92;16.40;;;3.60;99.90;;;;;;5045498;28;20587;-70
2020/12/08 04:25:52;;;;;;;27.02;16.02;;;3.60;99.90;;;;;;5030090;28;20116;-70
2020/12/08 04:28:18;;;;;;;26.35;16.10;;;3.60;99.90;;;;;;5020551;28;20121;-70
2020/12/08 04:30:46;;;;;;;27.20;16.27;;;3.60;99.90;;;;;;5030425;28;20514;-70
2020/12/08 04:33:13;;;;;;;31.02;17.23;;;3.60;99.90;;;;;;5035198;28;20017;-70
2020/12/08 04:35:43;;;;;;;27.38;16.80;;;3.60;99.90;;;;;;5031378;28;20603;-70
2020/12/08 04:38:11;;;;;;;26.60;15.88;;;3.70;99.90;;;;;;5032238;28;20428;-70
2020/12/08 04:40:37;;;;;;;27.83;15.65;;;3.70;99.90;;;;;;5026138;28;20029;-70
2020/12/08 04:43:04;;;;;;;28.58;17.13;;;3.70;99.90;;;;;;5035423;28;20033;-70
2020/12/08 04:45:29;;;;;;;28.52;16.83;;;3.70;99.90;;;;;;5041961;28;20066;-70
2020/12/08 04:47:55;;;;;;;28.58;16.55;;;3.60;99.90;;;;;;5014571;28;20060;-70
2020/12/08 04:50:20;;;;;;;33.75;18.77;;;3.70;99.90;;;;;;5031302;28;20030;-70
2020/12/08 04:52:49;;;;;;;30.95;18.50;;;3.70;99.90;;;;;;5030096;28;20036;-70
2020/12/08 04:55:15;;;;;;;28.83;17.33;;;3.60;99.90;;;;;;5027836;28;20025;-70
2020/12/08 04:57:41;;;;;;;28.63;17.30;;;3.60;99.90;;;;;;5025326;28;20359;-70
2020/12/08 05:00:13;;;;;;;33.05;18.80;;;3.60;99.90;;;;;;5030179;28;20379;-70
2020/12/08 05:02:55;;;;;;;26.23;16.30;;;3.70;99.90;;;;;;5032694;28;20029;-70
2020/12/08 05:05:23;;;;;;;33.90;18.65;;;3.70;99.90;;;;;;5028736;28;20541;-70
2020/12/08 05:07:49;;;;;;;30.73;17.90;;;3.70;99.90;;;;;;5031538;28;20032;-70
2020/12/08 05:10:25;;;;;;;30.83;17.42;;;3.60;99.90;;;;;;5028323;28;20038;-70
2020/12/08 05:12:51;;;;;;;29.92;17.58;;;3.60;99.90;;;;;;5025770;28;20092;-70
2020/12/08 05:15:18;;;;;;;34.70;18.75;;;3.60;99.90;;;;;;5014884;28;20033;-70
2020/12/08 05:17:44;;;;;;;34.28;18.23;;;3.60;99.90;;;;;;5026424;28;20033;-70
2020/12/08 05:20:16;;;;;;;32.15;18.27;;;3.50;99.90;;;;;;5028483;28;20077;-70
2020/12/08 05:22:55;;;;;;;33.08;18.45;;;3.50;99.90;;;;;;5029747;28;20025;-70
2020/12/08 05:25:21;;;;;;;30.45;17.48;;;3.50;99.90;;;;;;5043609;28;20352;-70
2020/12/08 05:27:52;;;;;;;34.90;18.40;;;3.50;99.90;;;;;;5049311;28;20044;-70
2020/12/08 05:30:18;;;;;;;31.88;18.20;;;3.50;99.90;;;;;;5026609;28;20045;-70
2020/12/08 05:32:44;;;;;;;32.42;18.15;;;3.50;99.90;;;;;;5042808;28;20021;-70
2020/12/08 05:35:11;;;;;;;31.73;17.20;;;3.50;99.90;;;;;;5029433;28;20097;-70
2020/12/08 05:37:41;;;;;;;28.65;16.13;;;3.50;99.90;;;;;;5027965;28;20025;-70
2020/12/08 05:40:10;;;;;;;31.45;17.60;;;3.50;99.90;;;;;;5032651;28;20025;-70
2020/12/08 05:42:40;;;;;;;32.38;17.80;;;3.40;99.90;;;;;;5034932;28;20052;-70
2020/12/08 05:45:09;;;;;;;30.70;17.33;;;3.40;99.90;;;;;;5034079;28;20101;-69
2020/12/08 05:47:52;;;;;;;38.03;19.08;;;3.40;99.90;;;;;;5030537;28;20139;-70
2020/12/08 05:50:19;;;;;;;29.95;16.38;;;3.40;99.90;;;;;;5024937;28;20037;-70
2020/12/08 05:52:52;;;;;;;30.73;17.42;;;3.40;99.90;;;;;;5025872;28;20021;-70
2020/12/08 05:55:22;;;;;;;28.33;16.65;;;3.40;99.90;;;;;;5029428;28;20030;-70
2020/12/08 05:57:53;;;;;;;29.48;16.67;;;3.40;99.90;;;;;;5024470;28;20025;-69
2020/12/08 06:00:26;;;;;;;28.65;15.85;;;3.40;99.90;;;;;;5025821;28;20041;-69
2020/12/08 06:03:07;;;;;;;27.95;16.13;;;3.40;99.90;;;;;;5028783;28;20029;-69
2020/12/08 06:05:35;;;;;;;31.40;17.05;;;3.50;99.90;;;;;;5028882;28;20053;-69
2020/12/08 06:08:15;;;;;;;28.80;16.60;;;3.50;99.90;;;;;;5028129;28;20121;-69
2020/12/08 06:10:55;;;;;;;28.83;15.65;;;3.50;99.90;;;;;;5031967;28;20033;-70
2020/12/08 06:13:28;;;;;;;29.20;16.15;;;3.50;99.90;;;;;;5029954;28;20029;-70
2020/12/08 06:15:54;;;;;;;32.35;17.70;;;3.50;99.90;;;;;;5029367;28;20024;-70
2020/12/08 06:18:31;;;;;;;29.15;16.63;;;3.50;99.90;;;;;;5027748;28;20040;-70
2020/12/08 06:20:57;;;;;;;29.95;17.00;;;3.50;99.90;;;;;;5028035;28;20025;-69
2020/12/08 06:23:23;;;;;;;31.92;18.10;;;3.40;99.90;;;;;;5025503;28;20057;-69
2020/12/08 06:26:02;;;;;;;36.95;18.42;;;3.40;99.90;;;;;;5015638;28;20058;-70
2020/12/08 06:28:28;;;;;;;25.55;15.10;;;3.30;99.90;;;;;;5027941;28;20118;-70
2020/12/08 06:31:09;;;;;;;30.17;15.70;;;3.30;99.90;;;;;;5031536;28;20065;-69
2020/12/08 06:33:51;;;;;;;31.67;16.92;;;3.30;99.90;;;;;;5029102;28;20025;-70
2020/12/08 06:36:20;;;;;;;29.42;15.82;;;3.30;99.90;;;;;;5029137;28;20026;-70
2020/12/08 06:39:05;;;;;;;24.80;14.98;;;3.30;99.90;;;;;;5020295;28;20090;-70
2020/12/08 06:41:36;;;;;;;26.52;15.00;;;3.30;99.90;;;;;;5045822;28;20044;-70
2020/12/08 06:44:21;;;;;;;26.83;15.63;;;3.30;99.90;;;;;;5016778;28;20036;-70
2020/12/08 06:46:54;;;;;;;25.23;14.88;;;3.40;99.90;;;;;;5026880;28;20454;-70
2020/12/08 06:49:24;;;;;;;24.42;14.30;;;3.40;99.90;;;;;;5027405;28;20021;-70
2020/12/08 06:51:56;;;;;;;30.38;16.42;;;3.40;99.90;;;;;;5028383;28;20469;-70
2020/12/08 06:54:24;;;;;;;20.30;10.60;;;3.40;99.90;;;;;;5027483;28;20039;-70
2020/12/08 06:56:50;;;;;;;29.35;16.02;;;3.40;99.90;;;;;;5026062;28;20469;-70
2020/12/08 06:59:30;;;;;;;27.08;15.13;;;3.40;99.90;;;;;;5030174;28;20030;-69
2020/12/08 07:01:57;;;;;;;27.20;15.30;;;3.40;99.90;;;;;;5014562;28;20108;-70
2020/12/08 07:04:27;;;;;;;24.38;14.40;;;3.30;99.90;;;;;;5029232;28;20032;-70
2020/12/08 07:06:53;;;;;;;24.15;14.40;;;3.40;99.90;;;;;;5036072;28;20036;-70
2020/12/08 07:09:19;;;;;;;24.98;14.73;;;3.40;99.90;;;;;;5015003;28;20104;-70
2020/12/08 07:11:47;;;;;;;26.83;15.18;;;3.40;99.90;;;;;;5031816;28;20034;-70
2020/12/08 07:14:13;;;;;;;22.60;14.23;;;3.40;99.90;;;;;;5028216;28;20041;-70
2020/12/08 07:16:43;;;;;;;20.33;13.02;;;3.40;99.90;;;;;;5030264;28;20475;-69
2020/12/08 07:19:08;;;;;;;24.75;14.35;;;3.40;99.90;;;;;;5046231;28;20032;-70
2020/12/08 07:21:34;;;;;;;24.58;13.48;;;3.50;99.90;;;;;;5030439;28;20033;-70
2020/12/08 07:24:00;;;;;;;24.02;13.70;;;3.50;99.90;;;;;;5030568;28;20095;-70
2020/12/08 07:26:29;;;;;;;22.48;13.65;;;3.60;99.90;;;;;;5035468;28;20075;-69
2020/12/08 07:28:56;;;;;;;25.23;14.25;;;3.60;99.90;;;;;;5032099;28;20034;-69
2020/12/08 07:31:23;;;;;;;24.40;13.90;;;3.60;99.90;;;;;;5032213;28;20045;-72
2020/12/08 07:33:50;;;;;;;23.20;13.65;;;3.60;99.90;;;;;;5032800;28;20037;-70
2020/12/08 07:36:31;;;;;;;25.55;15.00;;;3.60;99.90;;;;;;5028697;28;20025;-70
2020/12/08 07:38:57;;;;;;;23.17;13.70;;;3.50;99.90;;;;;;5030038;28;20116;-70
2020/12/08 07:41:24;;;;;;;25.02;14.73;;;3.50;99.90;;;;;;5018514;28;20030;-70
2020/12/08 07:43:50;;;;;;;20.73;13.10;;;3.50;99.90;;;;;;5012765;28;20029;-69
2020/12/08 07:46:29;;;;;;;22.70;13.82;;;3.50;99.90;;;;;;5030962;28;20394;-70
2020/12/08 07:48:59;;;;;;;23.55;13.02;;;3.50;99.90;;;;;;5032773;28;20029;-69
2020/12/08 07:51:28;;;;;;;26.48;14.65;;;3.50;99.90;;;;;;5029481;28;20556;-70
2020/12/08 07:53:59;;;;;;;22.92;13.85;;;3.50;99.90;;;;;;5033736;28;20053;-70
2020/12/08 07:56:26;;;;;;;25.38;14.50;;;3.50;99.90;;;;;;5031884;28;20086;-70
2020/12/08 07:58:54;;;;;;;21.65;12.80;;;3.40;99.90;;;;;;5030523;28;20021;-70
2020/12/08 08:01:19;;;;;;;22.58;13.30;;;3.40;99.90;;;;;;5033360;28;20046;-70
2020/12/08 08:03:45;;;;;;;22.33;13.05;;;3.50;99.90;;;;;;5030255;28;20095;-70
2020/12/08 08:06:22;;;;;;;26.45;14.68;;;3.50;99.90;;;;;;5032119;28;20314;-70
2020/12/08 08:08:49;;;;;;;22.40;13.65;;;3.40;99.90;;;;;;5035870;28;20510;-70
2020/12/08 08:11:19;;;;;;;22.58;13.38;;;3.40;99.90;;;;;;5031474;28;22011;-70
2020/12/08 08:13:49;;;;;;;21.50;13.30;;;3.40;99.90;;;;;;5031147;28;21125;-70
2020/12/08 08:16:17;;;;;;;20.23;12.52;;;3.40;99.90;;;;;;5030905;28;20829;-70
2020/12/08 08:18:45;;;;;;;21.58;13.20;;;3.40;99.90;;;;;;5030407;28;20033;-70
2020/12/08 08:21:14;;;;;;;19.92;12.23;;;3.50;99.90;;;;;;5032862;28;20036;-70
2020/12/08 08:23:40;;;;;;;20.65;13.05;;;3.50;99.90;;;;;;5031761;28;20041;-70
2020/12/08 08:26:06;;;;;;;20.95;12.90;;;3.50;99.90;;;;;;5035573;28;20039;-70
2020/12/08 08:28:34;;;;;;;19.48;12.60;;;3.60;99.90;;;;;;5032689;28;20442;-70
2020/12/08 08:31:05;;;;;;;22.30;13.75;;;3.60;99.90;;;;;;5036241;28;20503;-70
2020/12/08 08:33:31;;;;;;;20.20;12.55;;;3.60;99.90;;;;;;5013084;28;20040;-70
2020/12/08 08:35:57;;;;;;;20.60;12.93;;;3.60;99.90;;;;;;5023392;28;20025;-70
2020/12/08 08:38:26;;;;;;;19.40;11.90;;;3.70;99.90;;;;;;5029517;28;20025;-70
2020/12/08 08:40:53;;;;;;;21.17;13.07;;;3.70;99.90;;;;;;5037255;28;20664;-70
2020/12/08 08:43:19;;;;;;;21.30;12.82;;;3.70;99.90;;;;;;5029284;28;20025;-70
2020/12/08 08:45:44;;;;;;;17.77;12.25;;;3.80;99.90;;;;;;5037440;28;20373;-70
2020/12/08 08:48:14;;;;;;;20.92;12.10;;;3.90;99.90;;;;;;5029897;28;20094;-70
2020/12/08 08:50:43;;;;;;;22.40;14.65;;;3.90;99.90;;;;;;5033107;28;20040;-70
2020/12/08 08:53:10;;;;;;;20.25;12.95;;;4.00;99.90;;;;;;5034945;28;20036;-70
2020/12/08 08:55:36;;;;;;;21.55;13.23;;;4.00;99.90;;;;;;5029099;28;20030;-70
2020/12/08 08:58:02;;;;;;;20.52;13.95;;;4.00;99.90;;;;;;5031524;28;20079;-70
2020/12/08 09:00:30;;;;;;;21.80;13.55;;;4.10;99.90;;;;;;5033392;28;20382;-70
2020/12/08 09:02:58;;;;;;;22.70;14.75;;;4.10;99.90;;;;;;5029873;28;20098;-70
2020/12/08 09:05:24;;;;;;;19.63;12.93;;;4.10;99.90;;;;;;5028544;28;20520;-71
2020/12/08 09:07:54;;;;;;;20.55;13.60;;;4.00;99.90;;;;;;5030564;28;20037;-70
2020/12/08 09:10:20;;;;;;;20.45;13.63;;;4.10;99.90;;;;;;5030896;28;20487;-70
2020/12/08 09:12:48;;;;;;;22.40;14.07;;;4.10;99.90;;;;;;5032412;28;20037;-70
2020/12/08 09:15:20;;;;;;;19.95;13.50;;;4.10;99.90;;;;;;5028978;28;20025;-70
2020/12/08 09:17:46;;;;;;;21.77;13.82;;;4.10;99.90;;;;;;5033130;28;20037;-70
2020/12/08 09:20:14;;;;;;;18.52;12.93;;;4.10;99.90;;;;;;5032257;28;20044;-70
2020/12/08 09:22:41;;;;;;;17.95;12.02;;;4.10;99.90;;;;;;5015817;28;20040;-71
2020/12/08 09:25:07;;;;;;;18.63;11.80;;;4.10;99.90;;;;;;5019512;28;20045;-70
2020/12/08 09:27:33;;;;;;;17.42;12.25;;;4.20;99.90;;;;;;5046116;28;20026;-70
2020/12/08 09:30:02;;;;;;;18.00;12.98;;;4.20;99.90;;;;;;5030784;28;20121;-69
2020/12/08 09:32:28;;;;;;;17.15;11.50;;;4.20;99.90;;;;;;5027894;28;20056;-70
2020/12/08 09:34:57;;;;;;;17.25;11.40;;;4.20;99.90;;;;;;5031488;28;20131;-70
2020/12/08 09:37:25;;;;;;;18.15;12.32;;;4.30;99.90;;;;;;5035569;28;20486;-70
2020/12/08 09:39:53;;;;;;;18.58;12.40;;;4.30;99.90;;;;;;5032806;28;20041;-70
2020/12/08 09:42:19;;;;;;;17.58;11.90;;;4.30;99.90;;;;;;5032294;28;20634;-70
2020/12/08 09:44:47;;;;;;;17.05;12.27;;;4.40;99.90;;;;;;5033474;28;20106;-71
2020/12/08 09:47:14;;;;;;;16.65;11.23;;;4.50;99.90;;;;;;5032774;28;20067;-70
2020/12/08 09:49:42;;;;;;;19.33;12.45;;;4.50;99.90;;;;;;5028848;28;20021;-70
2020/12/08 09:52:08;;;;;;;19.85;13.35;;;4.60;99.90;;;;;;5032282;28;20051;-70
2020/12/08 09:54:36;;;;;;;18.63;13.20;;;4.70;99.90;;;;;;5014699;28;20455;-70
2020/12/08 09:57:02;;;;;;;19.52;12.60;;;4.70;99.90;;;;;;5031109;28;21951;-70
2020/12/08 09:59:28;;;;;;;16.77;12.43;;;4.80;99.90;;;;;;5036097;28;20041;-70
2020/12/08 10:01:54;;;;;;;19.77;13.70;;;4.80;99.90;;;;;;5029970;28;20037;-70
2020/12/08 10:04:20;;;;;;;18.33;12.27;;;4.90;99.90;;;;;;5033777;28;20084;-71
2020/12/08 10:06:48;;;;;;;18.80;13.80;;;4.90;99.90;;;;;;5031092;28;20414;-70
2020/12/08 10:09:14;;;;;;;18.10;13.05;;;4.90;99.90;;;;;;5033478;28;20033;-71
2020/12/08 10:11:40;;;;;;;16.65;12.65;;;4.90;99.90;;;;;;5034923;28;20500;-71
2020/12/08 10:14:06;;;;;;;17.75;12.40;;;4.90;99.90;;;;;;5026563;28;20053;-71
2020/12/08 10:16:31;;;;;;;19.63;13.32;;;4.90;99.90;;;;;;5033358;28;20481;-70
2020/12/08 10:18:57;;;;;;;16.13;11.98;;;4.90;99.90;;;;;;5031274;28;20030;-70
2020/12/08 10:21:23;;;;;;;17.52;13.07;;;5.00;99.90;;;;;;5031367;28;20021;-70
2020/12/08 10:23:52;;;;;;;16.98;12.30;;;5.00;99.90;;;;;;5030452;28;20029;-71
2020/12/08 10:26:20;;;;;;;15.13;10.68;;;5.00;99.90;;;;;;5031281;28;20029;-70
2020/12/08 10:28:47;;;;;;;18.23;11.90;;;5.00;99.90;;;;;;5031775;28;20032;-70
2020/12/08 10:31:17;;;;;;;16.20;11.35;;;5.00;99.90;;;;;;5033827;28;20049;-71
2020/12/08 10:33:49;;;;;;;15.73;11.40;;;5.00;99.90;;;;;;5037063;28;20026;-71
2020/12/08 10:36:15;;;;;;;17.00;11.73;;;5.00;99.90;;;;;;5026278;28;20030;-70
2020/12/08 10:38:43;;;;;;;17.15;12.00;;;5.10;99.90;;;;;;5035486;28;20055;-70
2020/12/08 10:41:13;;;;;;;18.35;12.75;;;5.10;99.90;;;;;;5027816;28;20479;-71
2020/12/08 10:43:39;;;;;;;16.58;12.43;;;5.00;99.90;;;;;;5031529;28;20042;-70
2020/12/08 10:46:05;;;;;;;15.73;11.48;;;5.10;99.90;;;;;;5027777;28;20055;-71
2020/12/08 10:48:31;;;;;;;14.88;11.00;;;5.10;99.90;;;;;;5045135;28;20328;-71
2020/12/08 10:51:00;;;;;;;15.35;11.45;;;5.10;99.90;;;;;;5027949;28;20060;-71
2020/12/08 10:53:25;;;;;;;15.40;11.45;;;5.10;99.90;;;;;;5029210;28;20024;-70
2020/12/08 10:55:53;;;;;;;16.13;11.75;;;5.10;99.90;;;;;;5028008;28;20022;-70
2020/12/08 10:58:19;;;;;;;17.15;12.18;;;5.10;99.90;;;;;;5027429;28;20367;-70
2020/12/08 11:00:45;;;;;;;16.65;12.05;;;5.10;99.90;;;;;;5028125;28;20033;-70
2020/12/08 11:03:11;;;;;;;16.02;11.07;;;5.20;99.90;;;;;;5029178;28;20025;-70
2020/12/08 11:05:38;;;;;;;17.67;12.27;;;5.20;99.90;;;;;;5028716;28;20029;-71
2020/12/08 11:08:04;;;;;;;18.10;11.55;;;5.30;99.90;;;;;;5026734;28;20033;-71
2020/12/08 11:10:30;;;;;;;15.57;11.90;;;5.30;99.90;;;;;;5028168;28;20479;-70
2020/12/08 11:12:56;;;;;;;14.65;10.98;;;5.30;99.90;;;;;;5028283;28;20061;-71
2020/12/08 11:15:24;;;;;;;15.10;11.30;;;5.30;99.90;;;;;;5028571;28;20022;-71
2020/12/08 11:17:49;;;;;;;17.13;12.30;;;5.30;99.90;;;;;;5024354;28;20062;-71
2020/12/08 11:20:15;;;;;;;15.00;11.77;;;5.30;99.90;;;;;;5031142;28;20094;-71
2020/12/08 11:22:41;;;;;;;17.40;12.60;;;5.30;99.90;;;;;;5026484;28;20029;-70
2020/12/08 11:25:09;;;;;;;16.05;12.18;;;5.30;99.90;;;;;;5031292;28;20559;-71
2020/12/08 11:27:35;;;;;;;16.77;12.02;;;5.40;99.90;;;;;;5031679;28;20057;-71
2020/12/08 11:30:01;;;;;;;17.38;11.93;;;5.30;99.90;;;;;;5027724;28;20061;-70
2020/12/08 11:32:26;;;;;;;15.77;11.45;;;5.30;99.90;;;;;;5032453;28;20041;-70
2020/12/08 11:34:52;;;;;;;16.88;12.68;;;5.20;99.90;;;;;;5024056;28;20022;-70
2020/12/08 11:37:20;;;;;;;17.67;12.55;;;5.20;99.90;;;;;;5030222;28;20022;-70
2020/12/08 11:39:46;;;;;;;16.45;12.30;;;5.20;99.90;;;;;;5031155;28;20559;-71
2020/12/08 11:42:14;;;;;;;18.08;11.73;;;5.20;99.90;;;;;;5030884;28;20041;-70
2020/12/08 11:44:43;;;;;;;18.23;12.73;;;5.20;99.90;;;;;;5027859;28;20029;-70
2020/12/08 11:47:09;;;;;;;17.08;12.43;;;5.20;99.90;;;;;;5032529;28;20083;-71
2020/12/08 11:49:36;;;;;;;16.35;11.88;;;5.10;99.90;;;;;;5030185;28;20418;-70
2020/12/08 11:52:05;;;;;;;17.98;12.32;;;5.10;99.90;;;;;;5035221;28;20088;-70
2020/12/08 11:54:31;;;;;;;18.65;13.30;;;5.10;99.90;;;;;;5031602;28;20479;-70
2020/12/08 11:56:57;;;;;;;18.83;13.23;;;5.10;99.90;;;;;;5033917;28;20535;-70
2020/12/08 11:59:23;;;;;;;16.25;12.20;;;5.00;99.90;;;;;;5029993;28;20116;-71
2020/12/08 12:01:48;;;;;;;17.55;12.70;;;5.10;99.90;;;;;;5032647;28;20031;-70
2020/12/08 12:04:14;;;;;;;17.55;12.52;;;5.00;99.90;;;;;;5021809;28;20466;-71
2020/12/08 12:06:42;;;;;;;16.08;11.68;;;5.10;99.90;;;;;;5032090;28;21835;-71
2020/12/08 12:09:08;;;;;;;17.63;12.55;;;5.10;99.90;;;;;;5034322;28;20151;-70
2020/12/08 12:11:33;;;;;;;17.38;13.15;;;5.10;99.90;;;;;;5032244;28;20148;-70
2020/12/08 12:14:16;;;;;;;17.63;11.98;;;5.00;99.90;;;;;;5032261;28;20030;-70
2020/12/08 12:16:44;;;;;;;17.58;11.65;;;5.00;99.90;;;;;;5017571;28;20033;-70
2020/12/08 12:19:12;;;;;;;17.50;13.13;;;5.00;99.90;;;;;;5034342;28;20100;-71
2020/12/08 12:21:37;;;;;;;16.50;12.07;;;5.00;99.90;;;;;;5031149;28;20044;-70
2020/12/08 12:24:03;;;;;;;17.92;13.23;;;5.00;99.90;;;;;;5029036;28;20025;-70
2020/12/08 12:26:33;;;;;;;17.92;13.13;;;5.00;99.90;;;;;;5029808;28;20086;-70
2020/12/08 12:29:01;;;;;;;16.95;12.00;;;5.00;99.90;;;;;;5032947;28;20096;-70
2020/12/08 12:31:27;;;;;;;17.67;12.73;;;5.00;99.90;;;;;;5032751;28;20052;-70
2020/12/08 12:33:52;;;;;;;18.85;13.45;;;5.10;99.90;;;;;;5030781;28;21461;-70
2020/12/08 12:36:18;;;;;;;19.17;14.00;;;5.10;99.90;;;;;;5034373;28;20026;-70
2020/12/08 12:38:48;;;;;;;17.92;13.10;;;5.10;99.90;;;;;;5029494;28;20068;-70
2020/12/08 12:41:20;;;;;;;18.58;13.55;;;5.10;99.90;;;;;;5033788;28;20105;-70